CPX327 Details

Departure: Cincinnati/Northern Kentucky International Airport (KCVG)
Arrival: Miami International Airport (KMIA) at N/A
Route: KENLN4 HYK VXV J43 ATL J89 OTK JUULI SSCOT5
Notes:


Current Weather Information
KCVG 191552Z VRB04KT 10SM FEW041 31/19 A3007 RMK AO2 SLP170 T03060194
KMIA 191553Z 10011KT 10SM SCT035 BKN200 32/22 A3007 RMK AO2 SLP184 T03170222